createdAt,value
2022-12-23T00:00:40.290Z,14.60
2022-12-23T00:03:07.479Z,14.70
2022-12-23T00:05:40.933Z,14.70
2022-12-23T00:08:08.067Z,14.40
2022-12-23T00:10:38.379Z,14.20
2022-12-23T00:13:23.942Z,15.50
2022-12-23T00:15:51.084Z,13.00
2022-12-23T00:18:18.071Z,12.60
2022-12-23T00:20:45.001Z,12.50
2022-12-23T00:23:11.946Z,12.90
2022-12-23T00:25:41.561Z,15.50
2022-12-23T00:28:19.539Z,14.80
2022-12-23T00:30:48.675Z,14.30
2022-12-23T00:33:16.257Z,14.70
2022-12-23T00:43:26.187Z,14.70
2022-12-23T00:45:53.752Z,14.30
2022-12-23T00:48:39.390Z,14.90
2022-12-23T00:51:06.350Z,13.70
2022-12-23T00:53:33.440Z,13.10
2022-12-23T00:56:00.300Z,13.00
2022-12-23T00:58:27.925Z,12.30
2022-12-23T01:01:13.604Z,11.60
2022-12-23T01:03:59.483Z,12.30
2022-12-23T01:06:26.565Z,11.70
2022-12-23T01:08:53.568Z,13.10
2022-12-23T01:19:05.429Z,12.90
2022-12-23T01:21:33.046Z,13.80
2022-12-23T01:24:00.139Z,13.40
2022-12-23T01:26:27.391Z,13.90
2022-12-23T01:28:55.858Z,13.50
2022-12-23T01:31:23.876Z,12.00
2022-12-23T01:33:52.005Z,13.40
2022-12-23T01:36:18.996Z,12.70
2022-12-23T01:38:45.899Z,9.60
2022-12-23T01:41:51.444Z,10.90
2022-12-23T01:44:56.193Z,11.60
2022-12-23T01:47:49.565Z,11.70
2022-12-23T01:50:28.061Z,12.60
2022-12-23T01:52:57.514Z,11.70
2022-12-23T01:55:27.218Z,12.30
2022-12-23T01:57:55.292Z,12.50
2022-12-23T02:00:41.052Z,13.00
2022-12-23T02:03:26.836Z,12.30
2022-12-23T02:05:54.155Z,12.60
2022-12-23T02:08:39.679Z,12.80
2022-12-23T02:11:19.406Z,12.30
2022-12-23T02:14:16.572Z,12.40
2022-12-23T02:16:50.970Z,11.80
2022-12-23T02:19:21.816Z,12.20
2022-12-23T02:22:10.764Z,11.00
2022-12-23T02:24:43.358Z,11.60
2022-12-23T02:27:24.436Z,10.90
2022-12-23T02:30:32.143Z,10.10
2022-12-23T02:33:09.494Z,11.00
2022-12-23T02:35:54.609Z,10.90
2022-12-23T02:38:40.758Z,10.80
2022-12-23T02:41:30.538Z,11.40
2022-12-23T02:44:00.471Z,12.40
2022-12-23T02:46:31.001Z,12.10
2022-12-23T02:49:09.753Z,10.90
2022-12-23T02:51:48.309Z,11.10
2022-12-23T02:54:18.896Z,11.00
2022-12-23T02:56:47.116Z,12.80
2022-12-23T02:59:19.580Z,13.20
2022-12-23T03:01:46.751Z,11.50
2022-12-23T03:04:14.606Z,9.70
2022-12-23T03:06:43.941Z,9.10
2022-12-23T03:09:11.251Z,8.20
2022-12-23T03:11:44.619Z,8.80
2022-12-23T03:14:31.485Z,9.30
2022-12-23T03:17:23.357Z,8.80
2022-12-23T03:19:53.559Z,9.40
2022-12-23T03:22:40.800Z,10.40
2022-12-23T03:25:24.693Z,11.40
2022-12-23T03:28:22.836Z,10.90
2022-12-23T03:30:53.432Z,10.20
2022-12-23T03:33:41.935Z,10.90
2022-12-23T03:36:12.218Z,10.70
2022-12-23T03:38:39.841Z,11.60
2022-12-23T03:41:09.500Z,10.80
2022-12-23T03:46:15.352Z,10.00
2022-12-23T03:48:53.799Z,10.70
2022-12-23T03:51:30.212Z,10.40
2022-12-23T03:54:02.169Z,10.10
2022-12-23T03:56:35.726Z,10.00
2022-12-23T03:59:11.529Z,11.20
2022-12-23T04:01:50.026Z,9.40
2022-12-23T04:04:40.391Z,9.60
2022-12-23T04:07:11.632Z,9.70
2022-12-23T04:43:35.595Z,10.90
2022-12-23T04:46:02.481Z,10.40
2022-12-23T04:48:31.167Z,10.50
2022-12-23T04:51:01.826Z,11.30
2022-12-23T04:53:28.615Z,13.30
2022-12-23T04:55:55.377Z,12.40
2022-12-23T04:58:24.173Z,11.90
2022-12-23T05:01:01.476Z,10.60
2022-12-23T05:03:28.471Z,13.00
2022-12-23T05:05:55.457Z,11.20
2022-12-23T05:08:22.165Z,11.40
2022-12-23T05:10:49.197Z,10.90
2022-12-23T05:13:16.030Z,9.70
2022-12-23T05:15:45.034Z,10.70
2022-12-23T05:18:18.139Z,11.40
2022-12-23T05:20:44.929Z,10.00
2022-12-23T05:23:11.908Z,9.20
2022-12-23T05:25:41.556Z,10.60
2022-12-23T05:28:09.558Z,11.60
2022-12-23T05:30:36.454Z,11.90
2022-12-23T05:33:03.347Z,17.80
2022-12-23T05:35:30.887Z,13.40
2022-12-23T05:37:57.817Z,10.40
2022-12-23T05:40:28.084Z,14.00
2022-12-23T05:42:57.614Z,10.90
2022-12-23T05:45:24.501Z,12.00
2022-12-23T05:47:51.801Z,12.50
2022-12-23T05:50:19.294Z,15.30
2022-12-23T05:52:46.918Z,14.60
2022-12-23T05:55:13.866Z,13.70
2022-12-23T05:57:40.747Z,13.10
2022-12-23T06:00:08.455Z,10.20
2022-12-23T06:02:40.289Z,9.90
2022-12-23T06:05:07.529Z,10.60
2022-12-23T06:07:35.435Z,10.70
2022-12-23T06:10:02.771Z,10.90
2022-12-23T06:12:29.973Z,11.90
2022-12-23T06:14:56.804Z,11.80
2022-12-23T06:17:23.812Z,12.20
2022-12-23T06:19:51.225Z,11.00
2022-12-23T06:22:18.339Z,12.80
2022-12-23T06:24:45.367Z,10.10
2022-12-23T06:27:12.140Z,10.00
2022-12-23T06:29:38.882Z,9.70
2022-12-23T06:32:05.761Z,11.00
2022-12-23T06:34:32.604Z,11.10
2022-12-23T06:36:59.455Z,11.90
2022-12-23T06:39:26.435Z,10.70
2022-12-23T06:43:15.517Z,11.20
2022-12-23T06:45:46.861Z,10.00
2022-12-23T06:48:13.922Z,11.00
2022-12-23T06:50:40.859Z,11.30
2022-12-23T06:53:08.745Z,12.00
2022-12-23T06:55:35.692Z,11.00
2022-12-23T06:58:02.446Z,11.20
2022-12-23T07:00:30.159Z,10.90
2022-12-23T07:02:57.174Z,10.50
2022-12-23T07:05:24.231Z,10.80
2022-12-23T07:07:51.080Z,12.90
2022-12-23T07:10:17.883Z,11.00
2022-12-23T07:12:50.347Z,14.40
2022-12-23T07:15:17.819Z,13.40
2022-12-23T07:17:44.607Z,10.80
2022-12-23T07:20:13.481Z,11.70
2022-12-23T07:22:40.548Z,14.70
2022-12-23T07:25:08.440Z,12.80
2022-12-23T07:27:35.192Z,12.70
2022-12-23T07:30:02.161Z,10.70
2022-12-23T07:32:29.115Z,9.40
2022-12-23T07:34:55.851Z,9.70
2022-12-23T07:37:22.729Z,13.50
2022-12-23T07:39:50.173Z,11.40
2022-12-23T07:42:43.401Z,12.80
2022-12-23T07:45:04.990Z,10.50
2022-12-23T07:47:32.149Z,11.80
2022-12-23T07:49:58.927Z,13.30
2022-12-23T07:52:25.857Z,11.90
2022-12-23T07:54:52.834Z,12.30
2022-12-23T07:57:19.683Z,11.20
2022-12-23T07:59:46.658Z,11.00
2022-12-23T08:02:13.534Z,12.70
2022-12-23T08:04:46.040Z,14.20
2022-12-23T08:07:13.671Z,12.40
2022-12-23T08:09:41.402Z,14.00
2022-12-23T08:12:08.240Z,12.90
2022-12-23T08:14:35.168Z,12.20
2022-12-23T08:17:02.141Z,12.20
2022-12-23T08:19:29.390Z,12.70
2022-12-23T08:21:56.258Z,13.30
2022-12-23T08:24:23.229Z,12.40
2022-12-23T08:26:50.439Z,11.80
2022-12-23T08:29:17.469Z,10.40
2022-12-23T08:31:44.409Z,13.00
2022-12-23T08:34:11.403Z,9.70
2022-12-23T08:36:40.078Z,9.50
2022-12-23T08:39:08.648Z,9.90
2022-12-23T08:41:37.567Z,10.70
2022-12-23T08:44:04.596Z,10.70
2022-12-23T08:46:31.518Z,10.60
2022-12-23T08:48:58.408Z,10.50
2022-12-23T08:51:25.927Z,12.10
2022-12-23T08:53:59.842Z,11.00
2022-12-23T08:56:32.423Z,10.80
2022-12-23T08:58:59.584Z,11.80
2022-12-23T09:01:28.234Z,11.40
2022-12-23T09:03:55.635Z,11.30
2022-12-23T09:06:29.891Z,10.70
2022-12-23T09:08:57.483Z,11.20
2022-12-23T09:11:27.522Z,12.00
2022-12-23T09:13:54.924Z,11.70
2022-12-23T09:16:22.024Z,11.70
2022-12-23T09:18:48.887Z,11.00
2022-12-23T09:21:17.987Z,11.60
2022-12-23T09:23:45.078Z,11.20
2022-12-23T09:26:11.933Z,10.90
2022-12-23T09:28:39.580Z,11.80
2022-12-23T09:31:10.912Z,12.00
2022-12-23T09:33:37.972Z,11.60
2022-12-23T09:36:05.119Z,11.10
2022-12-23T09:38:32.507Z,11.30
2022-12-23T09:41:04.069Z,11.50
2022-12-23T09:43:35.590Z,12.00
2022-12-23T09:46:24.507Z,13.10
2022-12-23T09:49:12.205Z,11.80
2022-12-23T09:51:39.086Z,11.20
2022-12-23T09:54:22.743Z,11.80
2022-12-23T09:56:55.233Z,11.60
2022-12-23T09:59:36.354Z,12.80
2022-12-23T10:02:12.411Z,9.70
2022-12-23T10:04:43.639Z,10.00
2022-12-23T10:07:22.272Z,10.70
2022-12-23T10:09:50.067Z,12.30
2022-12-23T10:12:42.110Z,12.70
2022-12-23T10:15:21.746Z,12.10
2022-12-23T10:17:49.897Z,13.10
2022-12-23T10:20:19.304Z,12.40
2022-12-23T10:25:17.030Z,11.70
2022-12-23T10:27:44.032Z,11.30
2022-12-23T10:30:34.340Z,11.60
2022-12-23T10:33:02.533Z,11.30
2022-12-23T10:35:45.784Z,13.40
2022-12-23T10:40:52.506Z,10.90
2022-12-23T10:43:35.719Z,12.40
2022-12-23T10:46:33.844Z,13.20
2022-12-23T10:49:20.342Z,11.90
2022-12-23T10:51:55.483Z,12.60
2022-12-23T10:54:31.977Z,12.20
2022-12-23T10:56:58.954Z,11.80
2022-12-23T10:59:29.293Z,13.20
2022-12-23T11:02:05.362Z,11.80
2022-12-23T11:04:36.764Z,13.20
2022-12-23T11:07:41.955Z,13.10
2022-12-23T11:09:57.384Z,12.70
2022-12-23T11:12:25.507Z,11.90
2022-12-23T11:14:54.502Z,12.60
2022-12-23T11:17:25.296Z,12.20
2022-12-23T11:20:10.277Z,12.60
2022-12-23T11:22:49.912Z,11.40
2022-12-23T11:25:41.389Z,11.60
2022-12-23T11:28:16.476Z,11.80
2022-12-23T11:30:56.646Z,10.80
2022-12-23T11:33:30.727Z,11.30
2022-12-23T11:36:19.987Z,11.60
2022-12-23T11:39:10.623Z,11.20
2022-12-23T11:41:37.925Z,11.60
2022-12-23T11:44:26.499Z,11.00
2022-12-23T11:46:53.301Z,11.50
2022-12-23T11:49:21.933Z,11.90
2022-12-23T11:52:01.938Z,11.40
2022-12-23T11:54:29.183Z,12.00
2022-12-23T11:56:56.063Z,12.20
2022-12-23T11:59:33.879Z,12.70
2022-12-23T12:02:03.497Z,9.60
2022-12-23T12:04:33.013Z,10.10
2022-12-23T12:07:00.916Z,9.50
2022-12-23T12:09:28.756Z,12.40
2022-12-23T12:12:07.262Z,12.40
2022-12-23T12:14:42.795Z,11.40
2022-12-23T12:17:31.679Z,11.90
2022-12-23T12:22:39.845Z,10.90
2022-12-23T12:25:18.723Z,13.20
2022-12-23T12:27:50.466Z,11.90
2022-12-23T12:30:19.619Z,12.40
2022-12-23T12:32:57.128Z,12.00
2022-12-23T12:35:38.156Z,12.00
2022-12-23T12:38:16.262Z,11.90
2022-12-23T12:40:45.837Z,11.90
2022-12-23T12:43:31.742Z,13.20
2022-12-23T12:46:09.033Z,12.80
2022-12-23T12:48:40.531Z,12.90
2022-12-23T12:51:11.589Z,14.00
2022-12-23T12:53:50.189Z,13.50
2022-12-23T12:56:28.507Z,12.00
2022-12-23T12:58:55.430Z,12.20
2022-12-23T13:01:40.460Z,12.70
2022-12-23T13:04:07.596Z,11.60
2022-12-23T13:06:41.258Z,13.20
2022-12-23T13:09:37.839Z,14.20
2022-12-23T13:12:15.940Z,13.30
2022-12-23T13:15:10.415Z,14.60
2022-12-23T13:17:49.206Z,12.30
2022-12-23T13:20:49.951Z,11.00
2022-12-23T13:23:42.743Z,11.30
2022-12-23T13:26:30.214Z,11.80
2022-12-23T13:29:06.136Z,13.70
2022-12-23T13:31:55.335Z,13.20
2022-12-23T13:34:43.434Z,14.90
2022-12-23T13:37:20.372Z,13.70
2022-12-23T13:39:55.121Z,14.80
2022-12-23T13:42:31.901Z,13.90
2022-12-23T13:44:58.762Z,12.50
2022-12-23T13:47:31.977Z,10.90
2022-12-23T13:50:15.828Z,12.70
2022-12-23T13:53:34.442Z,13.90
2022-12-23T13:56:17.347Z,11.50
2022-12-23T13:58:47.100Z,10.40
2022-12-23T14:01:17.662Z,12.10
2022-12-23T14:03:44.861Z,12.50
2022-12-23T14:06:24.724Z,13.30
2022-12-23T14:08:52.694Z,12.60
2022-12-23T14:11:32.460Z,12.90
2022-12-23T14:14:01.225Z,15.70
2022-12-23T14:16:36.891Z,15.20
2022-12-23T14:19:23.826Z,16.20
2022-12-23T14:22:01.098Z,14.70
2022-12-23T14:24:46.572Z,14.40
2022-12-23T14:27:36.607Z,13.30
2022-12-23T14:30:14.413Z,13.40
2022-12-23T14:32:57.073Z,13.40
2022-12-23T14:35:35.488Z,13.80
2022-12-23T14:38:16.279Z,13.70
2022-12-23T14:40:43.558Z,14.40
2022-12-23T14:43:22.951Z,14.50
2022-12-23T14:45:50.846Z,13.00
2022-12-23T14:48:36.056Z,13.00
2022-12-23T14:51:21.585Z,12.90
2022-12-23T14:53:52.218Z,13.80
2022-12-23T14:56:18.954Z,15.10
2022-12-23T14:58:45.767Z,14.70
2022-12-23T15:01:21.377Z,13.80
2022-12-23T15:03:57.570Z,14.00
2022-12-23T15:06:33.438Z,12.10
2022-12-23T15:09:00.610Z,12.50
2022-12-23T15:11:31.543Z,12.30
2022-12-23T15:14:00.405Z,15.30
2022-12-23T15:16:35.971Z,23.60
2022-12-23T15:19:26.006Z,24.00
2022-12-23T15:22:15.002Z,27.30
2022-12-23T15:24:46.574Z,28.20
2022-12-23T15:27:27.090Z,24.40
2022-12-23T15:29:55.058Z,24.90
2022-12-23T15:32:23.295Z,23.00
2022-12-23T15:34:50.705Z,36.50
2022-12-23T15:37:19.418Z,23.80
2022-12-23T15:39:47.081Z,19.50
2022-12-23T15:42:24.485Z,21.00
2022-12-23T15:44:52.254Z,18.80
2022-12-23T15:47:22.377Z,16.90
2022-12-23T15:49:49.174Z,17.30
2022-12-23T15:52:20.489Z,15.00
2022-12-23T15:55:20.719Z,17.30
2022-12-23T15:57:50.524Z,16.90
2022-12-23T16:00:47.952Z,19.80
2022-12-23T16:03:34.570Z,24.30
2022-12-23T16:06:17.351Z,16.70
2022-12-23T16:08:44.577Z,23.60
2022-12-23T16:11:18.989Z,18.10
2022-12-23T16:14:02.178Z,16.40
2022-12-23T16:16:31.367Z,29.70
2022-12-23T16:18:58.465Z,19.70
2022-12-23T16:21:32.383Z,14.90
2022-12-23T16:23:59.273Z,15.30
2022-12-23T16:26:26.139Z,12.60
2022-12-23T16:28:55.306Z,15.30
2022-12-23T16:31:22.138Z,21.80
2022-12-23T16:33:51.406Z,22.80
2022-12-23T16:36:20.302Z,16.40
2022-12-23T16:38:47.869Z,15.10
2022-12-23T16:41:14.861Z,17.40
2022-12-23T16:43:47.687Z,26.60
2022-12-23T16:46:19.554Z,20.70
2022-12-23T16:48:55.416Z,24.60
2022-12-23T16:51:22.927Z,21.10
2022-12-23T16:53:50.148Z,19.40
2022-12-23T16:56:19.033Z,22.90
2022-12-23T16:58:46.146Z,27.20
2022-12-23T17:01:26.265Z,21.80
2022-12-23T17:03:53.358Z,19.40
2022-12-23T17:06:20.344Z,19.50
2022-12-23T17:08:48.370Z,17.50
2022-12-23T17:11:18.965Z,16.60
2022-12-23T17:13:45.929Z,17.40
2022-12-23T17:16:20.144Z,21.20
2022-12-23T17:18:48.123Z,20.20
2022-12-23T17:21:23.662Z,20.10
2022-12-23T17:23:51.493Z,15.70
2022-12-23T17:26:18.303Z,14.60
2022-12-23T17:28:45.853Z,15.70
2022-12-23T17:31:15.547Z,13.90
2022-12-23T17:33:45.004Z,15.50
2022-12-23T17:36:12.165Z,16.90
2022-12-23T17:38:39.014Z,17.40
2022-12-23T17:41:05.919Z,22.30
2022-12-23T17:43:33.504Z,24.60
2022-12-23T17:46:00.472Z,21.80
2022-12-23T17:48:31.676Z,28.80
2022-12-23T17:50:59.316Z,30.40
2022-12-23T17:53:26.139Z,24.70
2022-12-23T17:55:52.990Z,19.00
2022-12-23T17:58:19.911Z,19.90
2022-12-23T18:00:47.175Z,24.00
2022-12-23T18:03:22.269Z,25.30
2022-12-23T18:05:49.505Z,26.80
2022-12-23T18:08:17.033Z,23.40
2022-12-23T18:10:44.635Z,20.80
2022-12-23T18:13:15.998Z,40.90
2022-12-23T18:15:43.289Z,29.30
2022-12-23T18:18:27.563Z,25.80
2022-12-23T18:20:58.326Z,22.60
2022-12-23T18:23:27.473Z,17.30
2022-12-23T18:25:55.412Z,15.60
2022-12-23T18:28:22.703Z,18.00
2022-12-23T18:30:50.305Z,22.40
2022-12-23T18:33:17.207Z,25.20
2022-12-23T18:35:48.612Z,15.90
2022-12-23T18:38:16.592Z,18.90
2022-12-23T18:40:43.547Z,22.10
2022-12-23T18:43:21.717Z,18.70
2022-12-23T18:45:52.903Z,15.50
2022-12-23T18:48:21.385Z,15.50
2022-12-23T18:50:48.605Z,23.10
2022-12-23T18:53:23.446Z,19.30
2022-12-23T18:55:51.400Z,20.10
2022-12-23T18:58:18.668Z,20.50
2022-12-23T19:00:47.709Z,19.70
2022-12-23T19:03:24.927Z,23.70
2022-12-23T19:05:52.260Z,22.40
2022-12-23T19:08:25.778Z,19.70
2022-12-23T19:10:54.358Z,15.60
2022-12-23T19:13:21.354Z,16.00
2022-12-23T19:15:48.161Z,16.70
2022-12-23T19:18:16.234Z,19.50
2022-12-23T19:20:44.049Z,14.50
2022-12-23T19:23:10.971Z,25.80
2022-12-23T19:25:41.039Z,24.50
2022-12-23T19:28:10.335Z,18.80
2022-12-23T19:30:40.510Z,22.90
2022-12-23T19:33:07.930Z,17.70
2022-12-23T19:35:35.785Z,18.00
2022-12-23T19:39:01.802Z,15.60
2022-12-23T19:41:28.829Z,15.70
2022-12-23T19:43:55.684Z,13.70
2022-12-23T19:46:22.624Z,19.80
2022-12-23T19:48:51.869Z,16.60
2022-12-23T19:51:18.869Z,16.60
2022-12-23T19:53:46.453Z,12.50
2022-12-23T19:56:14.747Z,17.70
2022-12-23T19:58:43.303Z,13.30
2022-12-23T20:01:12.883Z,15.50
2022-12-23T20:03:40.477Z,16.70
2022-12-23T20:06:08.238Z,17.30
2022-12-23T20:08:36.013Z,20.20
2022-12-23T20:11:07.826Z,23.10
2022-12-23T20:13:36.543Z,16.80
2022-12-23T20:16:04.270Z,17.60
2022-12-23T20:18:31.776Z,18.30
2022-12-23T20:20:59.616Z,14.60
2022-12-23T20:23:27.344Z,15.90
2022-12-23T20:25:54.771Z,14.90
2022-12-23T20:28:21.756Z,13.40
2022-12-23T20:30:48.856Z,13.60
2022-12-23T20:33:16.302Z,13.30
2022-12-23T20:35:43.277Z,14.20
2022-12-23T20:38:10.205Z,13.90
2022-12-23T20:40:37.102Z,13.70
2022-12-23T20:43:04.235Z,14.00
2022-12-23T20:45:31.646Z,14.80
2022-12-23T20:47:59.080Z,17.80
2022-12-23T20:50:26.028Z,29.40
2022-12-23T20:52:52.905Z,32.70
2022-12-23T20:55:19.932Z,20.00
2022-12-23T20:57:47.188Z,19.20
2022-12-23T21:00:14.927Z,15.90
2022-12-23T21:02:42.492Z,14.80
2022-12-23T21:05:09.704Z,15.20
2022-12-23T21:07:36.539Z,13.90
2022-12-23T21:10:03.829Z,13.00
2022-12-23T21:12:31.039Z,16.20
2022-12-23T21:14:58.174Z,15.30
2022-12-23T21:17:25.938Z,14.70
2022-12-23T21:19:52.939Z,14.70
2022-12-23T21:22:19.753Z,15.00
2022-12-23T21:24:46.656Z,19.10
2022-12-23T21:27:15.633Z,16.90
2022-12-23T21:29:42.461Z,16.60
2022-12-23T21:32:09.240Z,16.50
2022-12-23T21:34:36.679Z,17.10
2022-12-23T21:37:03.736Z,17.70
2022-12-23T21:39:31.138Z,15.80
2022-12-23T21:41:57.878Z,14.90
2022-12-23T21:44:24.965Z,14.60
2022-12-23T21:46:52.181Z,15.10
2022-12-23T21:49:20.159Z,21.20
2022-12-23T21:51:47.040Z,21.70
2022-12-23T21:54:14.062Z,17.50
2022-12-23T21:56:41.133Z,19.80
2022-12-23T21:59:11.508Z,17.50
2022-12-23T22:01:38.617Z,16.80
2022-12-23T22:04:05.755Z,17.40
2022-12-23T22:06:38.256Z,19.40
2022-12-23T22:09:06.399Z,17.90
2022-12-23T22:11:35.157Z,17.40
2022-12-23T22:14:03.214Z,15.80
2022-12-23T22:16:30.987Z,15.30
2022-12-23T22:18:58.457Z,15.50
2022-12-23T22:21:26.094Z,15.00
2022-12-23T22:23:53.585Z,15.20
2022-12-23T22:26:25.208Z,13.80
2022-12-23T22:28:54.450Z,15.70
2022-12-23T22:31:35.029Z,17.10
2022-12-23T22:34:02.353Z,17.60
2022-12-23T22:36:29.301Z,18.90
2022-12-23T22:38:57.784Z,17.40
2022-12-23T22:41:25.564Z,19.30
2022-12-23T22:43:52.605Z,16.40
2022-12-23T22:46:19.882Z,16.00
2022-12-23T22:48:47.062Z,14.60
2022-12-23T22:51:16.112Z,13.20
2022-12-23T22:53:43.154Z,13.30
2022-12-23T22:56:11.759Z,14.30
2022-12-23T22:58:38.827Z,14.10
2022-12-23T23:01:05.975Z,14.80
2022-12-23T23:03:33.706Z,14.30
2022-12-23T23:06:05.850Z,15.00
2022-12-23T23:08:32.951Z,15.30
2022-12-23T23:11:02.767Z,17.00
2022-12-23T23:13:32.616Z,17.40
2022-12-23T23:15:59.494Z,16.00
2022-12-23T23:18:26.972Z,16.10
2022-12-23T23:20:53.828Z,15.40
2022-12-23T23:23:22.565Z,12.90
2022-12-23T23:25:49.701Z,13.20
2022-12-23T23:28:16.719Z,12.60
2022-12-23T23:30:43.604Z,14.80
2022-12-23T23:33:10.844Z,16.30
2022-12-23T23:35:37.831Z,15.30
2022-12-23T23:38:04.657Z,14.70
2022-12-23T23:40:32.574Z,15.80
2022-12-23T23:42:59.790Z,16.00
2022-12-23T23:45:27.637Z,15.90
2022-12-23T23:47:55.445Z,16.00
2022-12-23T23:50:22.875Z,15.60
2022-12-23T23:52:49.905Z,15.90
2022-12-23T23:55:16.922Z,17.20
2022-12-23T23:57:43.952Z,14.70
